Time;durP1;ratioP1;P1;durP2;ratioP2;P2;SDS_P1;SDS_P2;PMS_P1;PMS_P2;Temp;Humidity;BMP_temperature;BMP_pressure;BME280_temperature;BME280_humidity;BME280_pressure;Samples;Min_cycle;Max_cycle;Signal;HPM_P1;HPM_P2
2021/03/17 00:01:20;;;;;;;5.68;1.70;;;;;;;11.28;66.28;101139.75;5037489;28;20029;-64
2021/03/17 00:03:45;;;;;;;5.63;1.83;;;;;;;11.48;66.47;101153.53;5054357;28;20021;-67
2021/03/17 00:06:13;;;;;;;5.40;1.70;;;;;;;11.47;67.32;101151.06;5037753;28;20075;-65
2021/03/17 00:08:38;;;;;;;6.57;1.60;;;;;;;11.44;67.67;101143.41;5042550;28;20474;-64
2021/03/17 00:11:04;;;;;;;3.92;1.70;;;;;;;11.41;67.75;101141.19;5036020;28;20681;-65
2021/03/17 00:13:29;;;;;;;5.05;1.77;;;;;;;11.29;68.68;101144.94;5031830;28;20394;-64
2021/03/17 00:15:58;;;;;;;4.18;2.10;;;;;;;11.24;69.51;101153.13;5027033;28;20386;-63
2021/03/17 00:18:24;;;;;;;6.43;2.20;;;;;;;11.09;69.91;101139.38;5040955;28;20032;-63
2021/03/17 00:20:49;;;;;;;6.88;1.90;;;;;;;11.03;71.57;101153.00;5033966;28;20026;-64
2021/03/17 00:23:17;;;;;;;7.25;2.20;;;;;;;10.96;71.45;101133.28;5031902;28;20036;-64
2021/03/17 00:25:42;;;;;;;5.15;1.98;;;;;;;10.98;72.01;101138.50;5050262;28;20064;-63
2021/03/17 00:28:09;;;;;;;5.57;2.05;;;;;;;10.95;72.02;101149.94;5033106;28;20076;-64
2021/03/17 00:30:36;;;;;;;5.38;1.73;;;;;;;10.86;71.60;101131.34;5026039;28;20056;-64
2021/03/17 00:33:05;;;;;;;4.53;1.80;;;;;;;10.87;72.05;101148.50;5019489;28;20493;-66
2021/03/17 00:35:31;;;;;;;8.75;2.20;;;;;;;10.83;72.45;101150.13;5036294;28;20025;-65
2021/03/17 00:37:56;;;;;;;4.13;1.85;;;;;;;10.79;72.64;101166.22;5032489;28;20055;-64
2021/03/17 00:40:23;;;;;;;5.68;2.10;;;;;;;10.68;74.90;101153.56;5053991;28;20101;-64
2021/03/17 00:42:48;;;;;;;6.10;2.28;;;;;;;10.45;75.23;101122.03;5029838;28;20569;-64
2021/03/17 00:45:15;;;;;;;5.72;2.40;;;;;;;10.51;76.56;101159.16;5027601;28;20480;-64
2021/03/17 00:47:41;;;;;;;6.18;2.63;;;;;;;10.41;76.84;101151.72;5025274;28;20050;-65
2021/03/17 00:50:08;;;;;;;6.95;2.67;;;;;;;10.22;76.98;101132.97;5032061;28;20028;-64
2021/03/17 00:52:34;;;;;;;7.85;2.33;;;;;;;10.03;76.76;101110.72;5024010;28;20025;-64
2021/03/17 00:55:00;;;;;;;5.72;2.42;;;;;;;10.10;76.81;101126.03;5028439;28;20018;-65
2021/03/17 00:57:25;;;;;;;6.75;2.30;;;;;;;10.24;76.94;101149.06;5051705;28;20021;-63
2021/03/17 00:59:51;;;;;;;5.80;1.80;;;;;;;10.21;76.88;101141.38;5020710;28;20096;-64
2021/03/17 01:02:16;;;;;;;6.95;2.63;;;;;;;10.18;76.87;101139.19;5037795;28;20026;-67
2021/03/17 01:04:42;;;;;;;6.38;2.35;;;;;;;10.24;76.16;101146.34;5042883;28;20033;-64
2021/03/17 01:07:12;;;;;;;4.65;2.33;;;;;;;10.20;76.44;101137.84;5031428;28;20116;-64
2021/03/17 01:09:37;;;;;;;7.57;2.40;;;;;;;10.18;76.22;101131.03;5027917;28;20076;-64
2021/03/17 01:12:03;;;;;;;4.88;2.38;;;;;;;10.15;76.98;101139.69;5033132;28;20033;-66
2021/03/17 01:14:28;;;;;;;7.32;2.72;;;;;;;10.03;77.75;101124.34;5032647;28;20057;-64
2021/03/17 01:16:54;;;;;;;8.10;2.40;;;;;;;10.01;77.58;101120.22;5044143;28;20116;-64
2021/03/17 01:19:19;;;;;;;6.63;2.50;;;;;;;9.92;77.94;101114.41;5058589;28;20060;-64
2021/03/17 01:21:44;;;;;;;5.53;2.92;;;;;;;9.95;77.72;101115.78;5035732;28;20036;-64
2021/03/17 01:24:10;;;;;;;5.00;2.20;;;;;;;9.96;77.31;101117.44;5024922;28;20041;-63
2021/03/17 01:26:35;;;;;;;5.65;2.17;;;;;;;9.96;77.60;101117.44;5040774;28;20053;-64
2021/03/17 01:29:01;;;;;;;6.25;2.10;;;;;;;9.92;77.79;101117.13;5037786;28;20046;-66
2021/03/17 01:31:26;;;;;;;5.07;2.58;;;;;;;9.85;77.92;101100.97;5041575;28;20397;-65
2021/03/17 01:33:52;;;;;;;4.82;2.28;;;;;;;9.84;77.85;101106.69;5033623;28;20072;-64
2021/03/17 01:36:17;;;;;;;5.47;2.20;;;;;;;9.79;77.52;101101.22;5046871;28;20029;-66
2021/03/17 01:38:42;;;;;;;7.80;2.30;;;;;;;9.76;77.90;101106.09;5028373;28;20144;-64
2021/03/17 01:41:08;;;;;;;5.10;2.20;;;;;;;9.73;78.74;101108.50;5048729;28;20021;-64
2021/03/17 01:43:33;;;;;;;6.28;2.60;;;;;;;9.71;78.79;101106.00;5022668;28;20394;-64
2021/03/17 01:45:59;;;;;;;3.97;2.50;;;;;;;9.69;79.24;101105.47;5036998;28;20021;-64
2021/03/17 01:48:24;;;;;;;6.60;3.03;;;;;;;9.68;79.18;101105.69;5033659;28;20057;-64
2021/03/17 01:50:54;;;;;;;5.70;2.20;;;;;;;9.45;79.22;101072.22;5031079;28;20032;-64
2021/03/17 01:53:30;;;;;;;5.05;2.50;;;;;;;9.69;79.23;101094.56;5041595;28;20032;-64
2021/03/17 01:55:56;;;;;;;4.07;2.20;;;;;;;9.66;78.87;101099.72;5026834;28;20121;-64
2021/03/17 01:58:22;;;;;;;4.45;2.20;;;;;;;9.63;79.10;101095.56;5044000;28;20068;-64
2021/03/17 02:00:47;;;;;;;4.57;2.40;;;;;;;9.61;78.97;101097.75;5051335;28;20036;-67
2021/03/17 02:03:13;;;;;;;4.85;2.35;;;;;;;9.66;78.53;101096.97;5037182;28;20034;-63
2021/03/17 02:05:43;;;;;;;7.10;2.55;;;;;;;9.67;78.56;101083.09;5034130;28;20032;-64
2021/03/17 02:08:12;;;;;;;4.85;2.08;;;;;;;9.67;78.10;101090.47;5032379;28;20025;-64
2021/03/17 02:10:38;;;;;;;6.53;2.30;;;;;;;9.65;78.22;101082.53;5030072;28;20056;-64
2021/03/17 02:13:24;;;;;;;6.95;2.33;;;;;;;9.66;78.17;101077.91;5048387;28;20024;-64
2021/03/17 02:16:23;;;;;;;5.40;1.90;;;;;;;9.65;78.44;101079.81;5047546;28;20370;-64
2021/03/17 02:19:07;;;;;;;3.15;1.63;;;;;;;9.64;77.96;101096.41;5032343;28;20050;-64
2021/03/17 02:22:29;;;;;;;4.57;1.98;;;;;;;9.71;77.92;101078.78;5048810;28;20036;-65
2021/03/17 02:25:50;;;;;;;14.07;2.95;;;;;;;9.69;81.84;101078.22;4938435;29;20046;-65
2021/03/17 02:28:21;;;;;;;8.10;2.67;;;;;;;9.54;83.34;101078.06;4898446;29;20070;-68
2021/03/17 02:31:05;;;;;;;9.00;3.10;;;;;;;9.48;83.68;101073.63;5020018;28;20179;-67
2021/03/17 02:33:47;;;;;;;5.47;2.70;;;;;;;9.37;84.96;101072.69;5036647;28;20026;-67
2021/03/17 02:36:17;;;;;;;5.90;3.00;;;;;;;9.34;84.55;101074.00;5042258;28;20636;-66
2021/03/17 02:38:48;;;;;;;8.93;3.00;;;;;;;9.32;84.85;101076.16;5039009;28;20025;-66
2021/03/17 02:41:21;;;;;;;6.43;3.25;;;;;;;9.29;85.36;101063.06;5048141;28;20452;-65
2021/03/17 02:43:52;;;;;;;5.70;2.92;;;;;;;9.21;85.65;101069.78;5035828;28;20036;-66
2021/03/17 02:46:20;;;;;;;5.93;2.90;;;;;;;9.16;85.65;101058.84;5040154;28;20493;-67
2021/03/17 02:48:55;;;;;;;8.43;3.58;;;;;;;9.14;85.59;101069.13;5047886;28;20104;-65
2021/03/17 02:51:37;;;;;;;9.93;2.95;;;;;;;9.14;86.07;101063.69;5019762;28;20037;-65
2021/03/17 02:54:05;;;;;;;7.38;3.28;;;;;;;9.10;86.08;101054.38;5037331;28;20021;-68
2021/03/17 02:56:37;;;;;;;5.93;3.20;;;;;;;9.09;86.41;101075.34;5030045;28;20050;-66
2021/03/17 02:59:05;;;;;;;6.07;2.72;;;;;;;9.09;86.28;101050.84;5028299;28;20105;-67
2021/03/17 03:01:31;;;;;;;8.60;3.20;;;;;;;9.05;86.08;101054.31;5036396;28;20033;-66
2021/03/17 03:03:58;;;;;;;7.32;2.75;;;;;;;9.08;86.24;101051.91;5019761;28;20033;-65
2021/03/17 03:06:25;;;;;;;7.63;2.72;;;;;;;9.10;85.93;101032.63;5035767;28;20025;-65
2021/03/17 03:08:52;;;;;;;6.10;2.90;;;;;;;9.05;86.11;101027.94;5055752;28;20025;-66
2021/03/17 03:11:18;;;;;;;6.80;2.95;;;;;;;9.16;86.00;101041.66;5054891;28;20029;-67
2021/03/17 03:13:44;;;;;;;5.70;2.50;;;;;;;9.17;85.62;101036.00;5035442;28;20028;-64
2021/03/17 03:16:13;;;;;;;6.22;2.90;;;;;;;9.16;85.87;101030.78;5034117;28;20033;-65
2021/03/17 03:18:40;;;;;;;3.90;2.40;;;;;;;9.17;85.25;101030.56;5031600;28;20025;-64
2021/03/17 03:21:07;;;;;;;5.72;2.70;;;;;;;9.17;85.34;101029.72;5036499;28;20079;-64
2021/03/17 03:23:34;;;;;;;4.70;2.58;;;;;;;9.19;85.13;101031.09;5042545;28;20025;-66
2021/03/17 03:26:00;;;;;;;6.05;2.88;;;;;;;9.22;85.32;101027.03;5042296;28;20053;-65
2021/03/17 03:28:26;;;;;;;3.55;2.58;;;;;;;9.23;84.73;101023.25;5036122;28;20021;-65
2021/03/17 03:30:54;;;;;;;4.95;2.47;;;;;;;9.25;84.79;101030.09;5028802;28;20025;-65
2021/03/17 03:33:21;;;;;;;4.03;2.50;;;;;;;9.13;84.40;101013.06;5017096;28;20091;-64
2021/03/17 03:35:48;;;;;;;4.35;2.75;;;;;;;9.27;84.54;101025.22;5032479;28;20021;-66
2021/03/17 03:38:13;;;;;;;5.38;2.20;;;;;;;9.29;84.01;101025.78;5032921;28;20545;-64
2021/03/17 03:40:40;;;;;;;5.25;2.88;;;;;;;9.28;84.10;101026.84;5050695;28;20480;-64
2021/03/17 03:43:08;;;;;;;4.35;2.67;;;;;;;9.28;83.85;101021.41;5047204;28;20029;-64
2021/03/17 03:45:35;;;;;;;6.22;2.85;;;;;;;9.31;83.84;101024.72;5042529;28;20081;-65
2021/03/17 03:48:06;;;;;;;6.10;3.00;;;;;;;9.33;83.69;101026.09;5038829;28;20053;-65
2021/03/17 03:50:40;;;;;;;7.03;2.63;;;;;;;9.37;83.91;101020.97;5032621;28;20021;-66
2021/03/17 03:53:29;;;;;;;4.85;2.60;;;;;;;9.41;83.18;101022.09;5039562;28;20040;-64
2021/03/17 03:56:05;;;;;;;4.85;2.97;;;;;;;9.39;83.22;101021.53;5032130;28;20388;-64
2021/03/17 03:58:48;;;;;;;7.50;2.97;;;;;;;9.41;83.02;101022.91;5031357;28;20033;-67
2021/03/17 04:01:23;;;;;;;3.45;2.95;;;;;;;9.41;82.69;101022.09;5036866;28;20025;-64
2021/03/17 04:03:55;;;;;;;5.40;3.78;;;;;;;9.42;82.73;101012.88;5029236;28;20025;-65
2021/03/17 04:06:21;;;;;;;5.80;3.30;;;;;;;9.42;82.40;101005.50;5028649;28;20037;-65
2021/03/17 04:08:52;;;;;;;5.20;2.80;;;;;;;9.43;82.45;101009.03;5019750;28;20022;-66
2021/03/17 04:11:18;;;;;;;7.40;3.33;;;;;;;9.43;82.52;101001.72;5026002;28;20060;-66
2021/03/17 04:13:45;;;;;;;6.68;3.30;;;;;;;9.44;81.92;101000.66;5044784;28;20017;-64
2021/03/17 04:16:12;;;;;;;6.00;3.38;;;;;;;9.45;82.51;100999.56;5046683;28;20184;-65
2021/03/17 04:18:41;;;;;;;5.85;3.40;;;;;;;9.50;82.13;101006.13;5058223;28;20025;-64
2021/03/17 04:21:32;;;;;;;9.75;3.78;;;;;;;9.54;81.89;100999.91;5059597;28;20169;-64
2021/03/17 04:24:01;;;;;;;5.40;3.20;;;;;;;9.52;81.96;100991.19;5026787;28;20080;-64
2021/03/17 04:26:29;;;;;;;8.20;3.70;;;;;;;9.60;81.80;100995.34;5056083;28;20029;-64
2021/03/17 04:28:55;;;;;;;6.40;3.60;;;;;;;9.62;81.67;101001.38;5038848;28;20444;-64
2021/03/17 04:31:23;;;;;;;5.22;3.90;;;;;;;9.64;81.24;100995.66;5026232;28;20113;-64
2021/03/17 04:33:48;;;;;;;6.47;3.53;;;;;;;9.63;81.63;100997.53;5046670;28;20036;-65
2021/03/17 04:36:15;;;;;;;4.78;3.65;;;;;;;9.63;81.81;100988.56;5042035;28;20030;-64
2021/03/17 04:38:42;;;;;;;5.75;3.90;;;;;;;9.64;81.42;100999.19;5043052;28;20067;-65
2021/03/17 04:41:10;;;;;;;7.57;3.67;;;;;;;9.68;81.46;101008.50;5043956;28;20046;-64
2021/03/17 04:43:40;;;;;;;6.25;3.92;;;;;;;9.67;81.57;100997.88;5033094;28;20033;-64
2021/03/17 04:46:07;;;;;;;5.05;4.10;;;;;;;9.66;81.33;100998.94;5013684;28;20022;-64
2021/03/17 04:48:35;;;;;;;8.73;4.00;;;;;;;9.65;81.29;100992.66;5023872;28;20025;-66
2021/03/17 04:51:01;;;;;;;9.43;4.47;;;;;;;9.64;81.95;100998.38;5037263;28;20025;-66
2021/03/17 04:53:26;;;;;;;8.00;4.57;;;;;;;9.66;81.63;101007.94;5038391;28;20113;-63
2021/03/17 04:55:52;;;;;;;7.07;4.70;;;;;;;9.67;81.62;101008.78;5040085;28;20072;-64
2021/03/17 04:58:22;;;;;;;6.32;4.30;;;;;;;9.66;81.87;101007.13;5026091;28;20037;-66
2021/03/17 05:00:49;;;;;;;8.15;4.55;;;;;;;9.65;82.04;101008.19;5041657;28;20116;-65
2021/03/17 05:03:17;;;;;;;7.57;4.80;;;;;;;9.67;81.94;101000.59;5034818;28;20033;-64
2021/03/17 05:05:43;;;;;;;7.07;4.50;;;;;;;9.73;81.56;101005.00;5030989;28;20022;-63
2021/03/17 05:08:09;;;;;;;7.60;4.60;;;;;;;9.69;81.74;101006.59;5054074;28;20025;-64
2021/03/17 05:10:38;;;;;;;9.13;4.82;;;;;;;9.69;81.86;101015.59;5038578;28;20092;-64
2021/03/17 05:13:11;;;;;;;6.60;4.88;;;;;;;9.70;81.94;101003.63;5028424;28;20104;-65
2021/03/17 05:15:38;;;;;;;7.75;5.03;;;;;;;9.69;81.91;101012.88;5035060;28;20083;-64
2021/03/17 05:18:05;;;;;;;6.90;4.72;;;;;;;9.55;81.69;100979.78;5025697;28;20025;-64
2021/03/17 05:20:31;;;;;;;7.90;5.00;;;;;;;9.07;81.52;100927.84;5009215;28;20032;-66
2021/03/17 05:22:58;;;;;;;6.93;4.68;;;;;;;9.81;81.55;100995.53;5034929;28;20034;-64
2021/03/17 05:25:24;;;;;;;7.80;4.88;;;;;;;9.81;81.49;100995.53;5034986;28;20031;-64
2021/03/17 05:27:52;;;;;;;7.22;4.95;;;;;;;9.80;81.36;100994.72;5033097;28;20080;-64
2021/03/17 05:30:20;;;;;;;8.30;5.50;;;;;;;9.75;81.53;100970.97;5039616;28;20490;-66
2021/03/17 05:32:47;;;;;;;10.65;5.10;;;;;;;9.82;81.46;100976.22;5030480;28;20024;-64
2021/03/17 05:35:13;;;;;;;6.53;5.18;;;;;;;9.86;81.29;100968.34;5047876;28;20071;-64
2021/03/17 05:37:39;;;;;;;7.47;5.00;;;;;;;9.84;81.42;100979.50;5054616;28;20029;-64
2021/03/17 05:40:08;;;;;;;7.55;4.82;;;;;;;9.86;81.29;100976.53;5028314;28;20030;-64
2021/03/17 05:42:34;;;;;;;8.50;5.68;;;;;;;9.86;81.17;100980.06;5035965;28;20057;-64
2021/03/17 05:45:00;;;;;;;10.30;5.35;;;;;;;9.85;81.35;100974.88;5028018;28;20025;-63
2021/03/17 05:47:25;;;;;;;7.65;5.47;;;;;;;9.84;81.35;100971.31;5036224;28;20099;-64
2021/03/17 05:49:52;;;;;;;7.95;5.63;;;;;;;9.86;80.99;100966.44;5038204;28;20021;-64
2021/03/17 05:52:18;;;;;;;7.80;5.50;;;;;;;9.87;81.23;100970.00;5035248;28;20029;-66
2021/03/17 05:54:45;;;;;;;6.50;5.35;;;;;;;9.86;81.24;100971.88;5052109;28;20045;-64
2021/03/17 05:57:11;;;;;;;9.25;6.15;;;;;;;9.85;81.19;100970.25;5035703;28;20030;-64
2021/03/17 05:59:37;;;;;;;7.15;5.40;;;;;;;9.87;81.07;100965.38;5044722;28;20021;-64
2021/03/17 06:02:03;;;;;;;8.55;5.70;;;;;;;9.87;81.29;100967.28;5031290;28;20033;-66
2021/03/17 06:04:30;;;;;;;8.65;6.30;;;;;;;9.87;81.03;100973.53;5038480;28;20083;-63
2021/03/17 06:06:57;;;;;;;9.30;5.95;;;;;;;9.86;80.97;100963.72;5019865;28;20025;-63
2021/03/17 06:09:24;;;;;;;7.55;5.68;;;;;;;9.95;80.81;100977.69;5031898;28;20025;-64
2021/03/17 06:11:51;;;;;;;7.10;5.68;;;;;;;9.92;81.06;100987.19;5048811;28;20442;-64
2021/03/17 06:14:21;;;;;;;9.18;5.40;;;;;;;9.92;81.31;100981.72;5036353;28;20032;-67
2021/03/17 06:16:52;;;;;;;9.30;5.75;;;;;;;9.95;81.20;100983.16;5031939;28;20113;-64
2021/03/17 06:19:21;;;;;;;8.25;5.75;;;;;;;9.95;81.13;100980.41;5028713;28;20362;-65
2021/03/17 06:21:47;;;;;;;6.80;5.32;;;;;;;9.95;81.03;100974.13;5036232;28;20026;-66
2021/03/17 06:24:13;;;;;;;7.32;5.93;;;;;;;9.93;81.23;100961.59;5029172;28;20032;-63
2021/03/17 06:26:39;;;;;;;8.50;5.43;;;;;;;9.95;81.21;100964.06;5030130;28;20032;-63
2021/03/17 06:29:04;;;;;;;7.60;5.82;;;;;;;9.84;81.00;100952.25;5048797;28;20020;-63
2021/03/17 06:31:30;;;;;;;8.77;5.25;;;;;;;9.99;81.13;100965.19;5023782;28;20048;-64
2021/03/17 06:33:56;;;;;;;7.35;4.95;;;;;;;9.98;81.20;100968.19;5032571;28;20108;-63
2021/03/17 06:36:26;;;;;;;7.22;4.97;;;;;;;9.90;81.00;100953.13;5029648;28;20026;-63
2021/03/17 06:39:04;;;;;;;7.45;5.13;;;;;;;9.96;81.01;100964.88;5045138;28;20447;-63
2021/03/17 06:42:01;;;;;;;8.95;5.30;;;;;;;10.00;80.64;100960.56;5028529;28;20064;-64
2021/03/17 06:44:29;;;;;;;6.28;4.90;;;;;;;10.01;80.75;100957.56;5023516;28;20044;-63
2021/03/17 06:47:21;;;;;;;9.32;5.18;;;;;;;10.04;80.46;100967.13;5029323;28;20562;-63
2021/03/17 06:49:51;;;;;;;7.38;4.65;;;;;;;10.04;80.30;100948.88;5034477;28;20045;-66
2021/03/17 06:52:27;;;;;;;8.70;4.88;;;;;;;10.08;80.22;100962.81;5046169;28;20399;-64
2021/03/17 06:55:13;;;;;;;8.07;5.07;;;;;;;10.08;80.22;100960.09;5025140;28;20367;-63
2021/03/17 06:57:42;;;;;;;9.32;4.95;;;;;;;10.12;80.17;100953.00;5029844;28;20033;-63
2021/03/17 07:00:32;;;;;;;6.57;4.38;;;;;;;10.17;79.80;100955.75;5031825;28;20029;-63
2021/03/17 07:03:11;;;;;;;6.93;4.70;;;;;;;10.20;79.61;100954.44;5038593;28;20108;-62
2021/03/17 07:05:42;;;;;;;5.43;4.45;;;;;;;10.23;79.76;100952.00;5033979;28;20165;-62
2021/03/17 07:08:11;;;;;;;6.05;4.30;;;;;;;10.24;79.37;100969.16;5035148;28;20025;-63
2021/03/17 07:10:41;;;;;;;5.70;4.30;;;;;;;10.28;79.33;100973.03;5036076;28;20032;-66
2021/03/17 07:13:09;;;;;;;4.90;4.30;;;;;;;10.20;79.20;100960.69;5034027;28;20640;-64
2021/03/17 07:15:37;;;;;;;6.32;4.35;;;;;;;10.35;79.10;100961.88;5025576;28;20021;-63
2021/03/17 07:18:21;;;;;;;7.63;4.72;;;;;;;10.37;78.74;100965.19;5027892;28;20108;-66
2021/03/17 07:20:55;;;;;;;8.32;4.53;;;;;;;10.40;79.05;100959.22;5031414;28;20021;-66
2021/03/17 07:23:24;;;;;;;6.40;4.60;;;;;;;10.46;78.37;100962.78;5035668;28;20029;-64
2021/03/17 07:26:25;;;;;;;6.30;4.57;;;;;;;10.47;78.00;100973.44;5026832;28;20026;-64
2021/03/17 07:29:01;;;;;;;4.57;4.00;;;;;;;10.45;78.13;100980.25;4993326;28;20167;-64
2021/03/17 07:31:28;;;;;;;6.30;4.53;;;;;;;10.45;77.95;100991.97;5032681;28;20022;-64
2021/03/17 07:33:54;;;;;;;6.90;4.80;;;;;;;10.49;77.88;100984.91;5035768;28;20023;-64
2021/03/17 07:36:30;;;;;;;5.97;4.60;;;;;;;10.53;77.49;100985.22;5044583;28;20025;-63
2021/03/17 07:38:58;;;;;;;7.10;4.50;;;;;;;10.56;77.45;100987.41;5055868;28;20025;-64
2021/03/17 07:41:24;;;;;;;6.45;4.80;;;;;;;10.59;77.39;100986.03;5055617;28;20394;-63
2021/03/17 07:43:53;;;;;;;6.45;4.47;;;;;;;10.63;76.96;100987.16;5049595;28;20051;-63
2021/03/17 07:46:21;;;;;;;5.75;4.15;;;;;;;10.57;76.65;100985.50;5045603;28;20132;-63
2021/03/17 07:48:47;;;;;;;7.47;4.30;;;;;;;10.53;76.15;100986.03;5024844;28;20036;-65
2021/03/17 07:51:13;;;;;;;6.68;4.65;;;;;;;10.56;76.46;100976.47;5019721;28;20026;-63
2021/03/17 07:53:39;;;;;;;7.97;4.63;;;;;;;10.66;76.42;100979.28;5050665;28;20040;-63
2021/03/17 07:56:05;;;;;;;5.50;4.40;;;;;;;10.76;76.17;100970.31;5033767;28;20038;-65
2021/03/17 07:58:31;;;;;;;9.50;5.15;;;;;;;10.80;75.43;100965.16;5053693;28;20103;-63
2021/03/17 08:00:57;;;;;;;8.20;5.00;;;;;;;10.84;75.32;100969.81;5055952;28;20029;-65
2021/03/17 08:03:24;;;;;;;9.68;5.38;;;;;;;10.75;74.95;100943.31;5054806;28;20485;-64
2021/03/17 08:05:50;;;;;;;9.05;4.82;;;;;;;10.73;74.51;100942.75;5045581;28;20029;-63
2021/03/17 08:08:16;;;;;;;9.02;5.07;;;;;;;10.81;74.26;100958.59;5032612;28;20021;-64
2021/03/17 08:10:44;;;;;;;9.30;5.45;;;;;;;10.81;74.13;100956.72;5018548;28;20033;-64
2021/03/17 08:13:12;;;;;;;7.20;4.80;;;;;;;10.83;74.02;100959.16;5041076;28;20024;-63
2021/03/17 08:15:38;;;;;;;7.55;5.43;;;;;;;10.85;74.15;100959.72;5029126;28;20030;-64
2021/03/17 08:18:29;;;;;;;6.35;5.13;;;;;;;10.81;73.49;100961.34;5040024;28;20040;-63
2021/03/17 08:20:55;;;;;;;8.63;5.70;;;;;;;10.77;72.98;100941.94;5027402;28;20112;-63
2021/03/17 08:23:39;;;;;;;8.00;5.22;;;;;;;10.76;72.31;100950.41;5033723;28;20057;-65
2021/03/17 08:26:05;;;;;;;8.02;5.22;;;;;;;10.78;72.88;100961.88;5042413;28;20060;-63
2021/03/17 08:28:44;;;;;;;9.68;5.80;;;;;;;10.81;73.09;100962.16;5032821;28;20026;-64
2021/03/17 08:31:09;;;;;;;7.35;5.07;;;;;;;10.84;71.92;100977.19;5028700;28;20037;-63
2021/03/17 08:33:40;;;;;;;9.90;5.65;;;;;;;10.83;71.63;100962.69;5025580;28;20032;-63
2021/03/17 08:36:15;;;;;;;9.18;5.57;;;;;;;10.90;71.84;100972.56;5041263;28;20394;-65
2021/03/17 08:38:49;;;;;;;12.35;5.30;;;;;;;10.97;71.12;100970.41;5024105;28;20018;-63
2021/03/17 08:41:17;;;;;;;19.42;6.07;;;;;;;10.96;69.88;100985.94;5034285;28;20025;-65
2021/03/17 08:43:44;;;;;;;11.60;4.53;;;;;;;10.98;67.67;100991.16;5035410;28;20083;-63
2021/03/17 08:46:16;;;;;;;5.80;3.67;;;;;;;10.98;66.18;100983.78;5045729;28;20052;-63
2021/03/17 08:49:08;;;;;;;5.70;4.15;;;;;;;10.96;63.29;100982.41;5017763;28;20025;-64
2021/03/17 08:51:54;;;;;;;9.68;4.43;;;;;;;11.02;64.26;100979.44;5023947;28;20026;-64
2021/03/17 08:54:34;;;;;;;10.57;4.95;;;;;;;11.16;64.21;100998.84;5024353;28;20410;-64
2021/03/17 08:57:01;;;;;;;5.55;3.53;;;;;;;11.21;63.71;101005.44;5035723;28;20025;-64
2021/03/17 08:59:38;;;;;;;6.72;3.58;;;;;;;11.21;62.52;101016.34;5050218;28;20548;-65
2021/03/17 09:02:04;;;;;;;6.57;3.20;;;;;;;11.11;60.86;101008.94;5034155;28;20033;-64
2021/03/17 09:04:49;;;;;;;9.77;3.15;;;;;;;11.05;59.58;101002.66;5031649;28;20022;-64
2021/03/17 09:07:15;;;;;;;14.60;3.90;;;;;;;11.12;59.70;101007.84;5047085;28;20034;-64
2021/03/17 09:09:48;;;;;;;11.07;3.97;;;;;;;11.24;59.59;101007.63;5038506;28;20047;-65
2021/03/17 09:12:14;;;;;;;10.40;4.30;;;;;;;11.27;59.60;101012.53;5044810;28;20163;-64
2021/03/17 09:14:39;;;;;;;7.65;3.58;;;;;;;11.39;59.65;101015.03;5037206;28;20029;-64
2021/03/17 09:17:22;;;;;;;8.82;3.35;;;;;;;11.48;58.33;101013.41;5020804;28;20025;-64
2021/03/17 09:19:59;;;;;;;5.47;2.80;;;;;;;11.46;57.79;101021.06;5058183;28;20025;-65
2021/03/17 09:22:38;;;;;;;8.13;3.25;;;;;;;11.45;57.25;101000.28;5056709;28;20017;-63
2021/03/17 09:25:24;;;;;;;8.85;3.08;;;;;;;11.52;57.47;100989.97;5058364;28;20021;-65
2021/03/17 09:28:11;;;;;;;5.13;2.83;;;;;;;11.50;56.27;101003.06;5058178;28;20066;-64
2021/03/17 09:30:49;;;;;;;4.50;2.25;;;;;;;11.42;53.96;100992.66;5053985;28;20106;-65
2021/03/17 09:33:17;;;;;;;5.93;2.67;;;;;;;11.34;54.12;100994.00;5024945;28;20025;-64
2021/03/17 09:35:58;;;;;;;4.90;2.55;;;;;;;11.50;55.37;100998.41;5042592;28;20021;-64
2021/03/17 09:38:26;;;;;;;12.40;3.28;;;;;;;11.63;56.06;101001.72;5052674;28;20017;-63
2021/03/17 09:40:54;;;;;;;5.82;2.40;;;;;;;11.63;54.76;101001.72;5034702;28;20025;-64
2021/03/17 09:43:39;;;;;;;7.07;2.72;;;;;;;11.73;53.93;100995.44;5042087;28;20370;-63
2021/03/17 09:46:17;;;;;;;5.43;2.97;;;;;;;11.80;53.73;100993.25;5057208;28;20033;-63
2021/03/17 09:48:44;;;;;;;8.38;2.63;;;;;;;11.75;54.19;100999.53;5057688;28;20052;-64
2021/03/17 09:51:15;;;;;;;25.90;4.43;;;;;;;11.70;52.24;100995.97;5035410;28;20045;-63
2021/03/17 09:53:42;;;;;;;7.00;2.20;;;;;;;11.65;52.99;100996.81;5029691;28;20093;-64
2021/03/17 09:56:08;;;;;;;5.47;2.05;;;;;;;11.69;52.70;100994.34;5044716;28;20025;-63
2021/03/17 09:58:33;;;;;;;5.13;2.28;;;;;;;11.69;52.72;101000.63;5028774;28;20022;-65
2021/03/17 10:01:10;;;;;;;3.83;2.15;;;;;;;11.73;52.36;101001.72;5035849;28;20017;-64
2021/03/17 10:03:36;;;;;;;6.70;2.45;;;;;;;11.85;53.45;101023.34;5051745;28;20017;-64
2021/03/17 10:06:02;;;;;;;7.25;2.42;;;;;;;11.97;53.16;101006.69;5036638;28;20036;-65
2021/03/17 10:08:27;;;;;;;5.55;2.38;;;;;;;12.02;52.64;101025.81;5039334;28;20025;-63
2021/03/17 10:10:53;;;;;;;5.90;2.58;;;;;;;12.05;52.58;101021.72;5037198;28;20040;-63
2021/03/17 10:13:18;;;;;;;6.20;2.33;;;;;;;12.04;51.70;101026.38;5037603;28;20474;-65
2021/03/17 10:15:44;;;;;;;7.32;2.00;;;;;;;12.04;52.08;101018.19;5028418;28;20052;-63
2021/03/17 10:18:15;;;;;;;7.32;2.10;;;;;;;12.06;51.62;101015.16;5041756;28;20020;-64
2021/03/17 10:20:41;;;;;;;10.25;2.53;;;;;;;11.95;49.79;101019.78;5051906;28;20025;-64
2021/03/17 10:23:06;;;;;;;9.90;2.47;;;;;;;11.80;50.64;100994.09;5037518;28;20151;-64
2021/03/17 10:25:32;;;;;;;6.47;2.67;;;;;;;11.84;50.78;100993.53;5036302;28;20543;-64
2021/03/17 10:28:05;;;;;;;9.35;2.38;;;;;;;12.07;50.45;101019.53;5029365;28;20029;-64
2021/03/17 10:30:35;;;;;;;4.93;2.10;;;;;;;12.15;50.20;101015.44;5052417;28;20025;-65
2021/03/17 10:33:02;;;;;;;4.55;1.80;;;;;;;12.18;49.78;101023.09;5035376;28;20031;-66
2021/03/17 10:35:30;;;;;;;5.65;1.83;;;;;;;12.20;48.78;101021.72;5042184;28;20048;-64
2021/03/17 10:37:58;;;;;;;5.30;2.28;;;;;;;12.21;49.06;101019.81;5056984;28;20047;-63
2021/03/17 10:40:25;;;;;;;6.22;2.15;;;;;;;12.12;48.90;101025.81;5056604;28;20028;-64
2021/03/17 10:42:56;;;;;;;6.03;1.92;;;;;;;12.09;48.50;101022.81;5043807;28;20030;-64
2021/03/17 10:45:29;;;;;;;4.80;2.10;;;;;;;12.30;47.82;101037.31;5025741;28;20052;-64
2021/03/17 10:47:54;;;;;;;5.15;2.20;;;;;;;12.12;47.83;101014.91;5025630;28;20053;-63
2021/03/17 10:50:31;;;;;;;5.40;2.20;;;;;;;12.15;46.94;101012.72;5028654;28;20045;-64
2021/03/17 10:52:56;;;;;;;5.25;1.70;;;;;;;12.11;47.56;101006.94;5031982;28;20469;-64
2021/03/17 10:55:28;;;;;;;5.07;1.83;;;;;;;12.09;46.88;101014.63;5041238;28;20922;-64
2021/03/17 10:58:08;;;;;;;5.40;1.85;;;;;;;12.04;45.65;101014.59;5019013;28;20033;-64
2021/03/17 11:00:34;;;;;;;4.78;1.73;;;;;;;12.08;47.24;101000.13;5047177;28;20041;-64
2021/03/17 11:02:59;;;;;;;6.63;2.05;;;;;;;12.21;48.01;100997.94;5033320;28;20030;-64
2021/03/17 11:05:32;;;;;;;8.68;2.47;;;;;;;12.29;46.72;101022.00;5030778;28;20101;-64
2021/03/17 11:08:05;;;;;;;8.48;2.65;;;;;;;12.17;47.16;101013.25;5029679;28;20091;-63
2021/03/17 11:10:33;;;;;;;6.78;1.85;;;;;;;12.21;47.37;101022.53;5033479;28;20029;-65
2021/03/17 11:13:18;;;;;;;6.82;2.30;;;;;;;12.10;45.92;101024.47;5033374;28;20029;-62
2021/03/17 11:15:48;;;;;;;6.10;1.80;;;;;;;12.01;46.84;101026.91;5030706;28;20029;-64
2021/03/17 11:18:23;;;;;;;7.47;2.03;;;;;;;12.04;47.28;101023.66;5034624;28;20355;-65
2021/03/17 11:20:49;;;;;;;8.70;1.85;;;;;;;12.27;47.05;101015.97;5049573;28;20056;-64
2021/03/17 11:23:20;;;;;;;4.97;1.85;;;;;;;12.33;46.44;101014.06;5017575;28;20076;-64
2021/03/17 11:25:46;;;;;;;10.27;2.40;;;;;;;12.44;46.55;101030.19;5049707;28;20094;-66
2021/03/17 11:28:13;;;;;;;6.13;1.83;;;;;;;12.41;45.99;101022.50;5048170;28;20044;-64
2021/03/17 11:31:00;;;;;;;7.10;2.03;;;;;;;12.38;44.03;101016.78;5027596;28;20413;-64
2021/03/17 11:33:26;;;;;;;6.07;1.77;;;;;;;12.48;45.97;101016.78;5025330;28;20059;-64
2021/03/17 11:35:54;;;;;;;7.07;2.20;;;;;;;12.61;45.17;101020.84;5035583;28;20100;-64
2021/03/17 11:38:20;;;;;;;6.20;2.00;;;;;;;12.45;45.21;101003.63;5028498;28;20031;-64
2021/03/17 11:40:47;;;;;;;5.15;1.50;;;;;;;12.51;44.24;101024.44;5026604;28;20100;-65
2021/03/17 11:43:15;;;;;;;7.60;2.65;;;;;;;12.38;44.02;101016.78;5049984;28;20021;-64